Time;durP1;ratioP1;P1;durP2;ratioP2;P2;SDS_P1;SDS_P2;PMS_P1;PMS_P2;Temp;Humidity;BMP_temperature;BMP_pressure;BME280_temperature;BME280_humidity;BME280_pressure;Samples;Min_cycle;Max_cycle;Signal;HPM_P1;HPM_P2
2022/10/24 00:02:22;;;;;;;7.05;2.50;;;15.40;99.90;;;;;;4978660;28;20042;-76
2022/10/24 00:04:47;;;;;;;7.05;2.42;;;15.30;99.90;;;;;;4982386;28;20478;-75
2022/10/24 00:07:13;;;;;;;7.93;2.45;;;15.40;99.90;;;;;;4980757;28;20046;-75
2022/10/24 00:09:39;;;;;;;6.53;2.45;;;15.30;99.90;;;;;;4979561;28;20378;-75
2022/10/24 00:12:05;;;;;;;7.75;2.50;;;15.30;99.90;;;;;;4995233;28;20046;-75
2022/10/24 00:14:32;;;;;;;5.78;2.08;;;15.20;99.90;;;;;;4978058;28;20467;-75
2022/10/24 00:16:58;;;;;;;6.85;2.20;;;15.20;99.90;;;;;;4978091;28;20486;-75
2022/10/24 00:19:24;;;;;;;7.53;2.50;;;15.20;99.90;;;;;;4966844;28;20049;-75
2022/10/24 00:21:49;;;;;;;7.45;2.38;;;15.10;99.90;;;;;;4977824;28;20042;-75
2022/10/24 00:24:15;;;;;;;7.07;2.38;;;15.10;99.90;;;;;;4978738;28;20057;-76
2022/10/24 00:26:41;;;;;;;8.65;2.47;;;15.00;99.90;;;;;;4987464;28;20402;-75
2022/10/24 00:29:07;;;;;;;7.38;2.20;;;15.00;99.90;;;;;;4987097;28;20048;-75
2022/10/24 00:31:33;;;;;;;5.40;2.08;;;15.00;99.90;;;;;;4965363;28;20129;-75
2022/10/24 00:33:59;;;;;;;7.70;2.30;;;14.90;99.90;;;;;;4967693;28;20125;-74
2022/10/24 00:36:26;;;;;;;6.85;2.25;;;14.90;99.90;;;;;;4989058;28;20049;-75
2022/10/24 00:38:53;;;;;;;7.38;2.13;;;14.90;99.90;;;;;;4965946;28;20117;-75
2022/10/24 00:41:24;;;;;;;7.47;1.98;;;14.90;99.90;;;;;;4980824;28;20178;-75
2022/10/24 00:43:50;;;;;;;7.03;2.10;;;14.90;99.90;;;;;;4964428;28;20037;-75
2022/10/24 00:46:16;;;;;;;6.20;1.92;;;14.90;99.90;;;;;;4964896;28;20051;-74
2022/10/24 00:48:47;;;;;;;7.40;2.10;;;14.90;99.90;;;;;;4975456;28;20532;-74
2022/10/24 00:51:26;;;;;;;7.32;2.10;;;14.90;99.90;;;;;;4968763;28;20125;-75
2022/10/24 00:53:58;;;;;;;7.03;2.25;;;14.90;99.90;;;;;;4965924;28;20105;-74
2022/10/24 00:56:26;;;;;;;;;;;14.90;99.90;;;;;;4973547;28;20046;-77
2022/10/24 00:58:54;;;;;;;8.15;2.25;;;14.90;99.90;;;;;;4974543;28;20460;-76
2022/10/24 01:01:19;;;;;;;5.57;1.90;;;14.90;99.90;;;;;;4965401;28;20467;-76
2022/10/24 01:03:45;;;;;;;8.98;2.55;;;15.00;99.90;;;;;;4954299;28;20046;-76
2022/10/24 01:06:25;;;;;;;7.35;2.10;;;15.00;99.90;;;;;;4971902;28;20414;-77
2022/10/24 01:09:22;;;;;;;5.70;2.10;;;15.00;99.90;;;;;;4965046;28;20402;-77
2022/10/24 01:12:00;;;;;;;6.93;2.50;;;15.10;99.90;;;;;;4978024;28;20042;-75
2022/10/24 01:14:28;;;;;;;10.23;2.60;;;15.10;99.90;;;;;;4988954;28;20425;-75
2022/10/24 01:17:08;;;;;;;6.80;2.40;;;15.20;99.90;;;;;;4986017;28;20038;-77
2022/10/24 01:20:01;;;;;;;9.00;2.47;;;15.20;99.90;;;;;;4981287;28;20042;-77
2022/10/24 01:22:46;;;;;;;9.32;2.78;;;15.30;99.90;;;;;;4966531;28;20061;-74
2022/10/24 01:25:54;;;;;;;8.32;2.50;;;15.30;99.90;;;;;;4983340;28;20071;-76
2022/10/24 01:28:57;;;;;;;10.05;2.90;;;15.40;99.90;;;;;;4958298;28;20042;-75
2022/10/24 01:31:28;;;;;;;7.20;2.78;;;15.50;99.90;;;;;;4994235;28;20073;-75
2022/10/24 01:34:38;;;;;;;6.93;2.83;;;15.40;99.90;;;;;;4960547;28;20109;-78
2022/10/24 01:37:12;;;;;;;7.97;2.75;;;15.50;99.90;;;;;;4934880;28;20050;-76
2022/10/24 01:39:53;;;;;;;7.75;2.83;;;15.50;99.90;;;;;;4984584;28;20081;-75
2022/10/24 01:42:22;;;;;;;9.47;3.03;;;15.50;99.90;;;;;;4976347;28;20061;-75
2022/10/24 01:44:51;;;;;;;7.60;2.83;;;15.50;99.90;;;;;;4956597;28;20053;-74
2022/10/24 01:47:30;;;;;;;9.82;2.90;;;15.60;99.90;;;;;;4977216;28;20057;-76
2022/10/24 01:50:02;;;;;;;8.80;3.10;;;15.60;99.90;;;;;;4976005;28;20330;-76
2022/10/24 01:52:32;;;;;;;8.80;2.95;;;15.60;99.90;;;;;;4981276;28;20073;-76
2022/10/24 01:54:57;;;;;;;8.00;3.38;;;15.50;99.90;;;;;;4979678;28;20034;-75
2022/10/24 01:57:31;;;;;;;8.85;3.00;;;15.50;99.90;;;;;;4977318;28;20105;-73
2022/10/24 01:59:57;;;;;;;8.52;3.17;;;15.50;99.90;;;;;;4963174;28;20117;-76
2022/10/24 02:02:27;;;;;;;11.10;3.30;;;15.50;99.90;;;;;;4984071;28;20618;-76
2022/10/24 02:05:14;;;;;;;13.25;3.42;;;15.40;99.90;;;;;;4975581;28;20037;-77
2022/10/24 02:07:42;;;;;;;10.52;3.42;;;15.30;99.90;;;;;;4964349;28;20043;-77
2022/10/24 02:10:13;;;;;;;9.85;3.50;;;15.30;99.90;;;;;;4975487;28;20474;-76
2022/10/24 02:12:42;;;;;;;9.47;3.53;;;15.20;99.90;;;;;;4969372;28;20380;-76
2022/10/24 02:15:28;;;;;;;9.18;3.20;;;15.20;99.90;;;;;;4964912;28;20169;-77
2022/10/24 02:17:55;;;;;;;9.75;3.13;;;15.20;99.90;;;;;;4972918;28;20049;-76
2022/10/24 02:20:44;;;;;;;9.77;3.35;;;15.20;99.90;;;;;;4976858;28;20034;-77
2022/10/24 02:23:26;;;;;;;9.75;3.30;;;15.20;99.90;;;;;;4982490;28;20054;-77
2022/10/24 02:25:53;;;;;;;;;;;15.10;99.90;;;;;;4982824;28;20046;-76
2022/10/24 02:28:26;;;;;;;10.48;3.38;;;15.20;99.90;;;;;;4981424;28;19968;-76
2022/10/24 02:31:22;;;;;;;10.18;3.33;;;15.10;99.90;;;;;;4986140;28;20112;-79
2022/10/24 02:33:50;;;;;;;8.27;3.00;;;15.10;99.90;;;;;;4965778;28;20117;-76
2022/10/24 02:36:20;;;;;;;12.35;3.60;;;15.00;99.90;;;;;;4975352;28;20050;-74
2022/10/24 02:38:49;;;;;;;10.60;3.30;;;15.00;99.90;;;;;;4988052;28;20378;-75
2022/10/24 02:41:20;;;;;;;9.13;3.35;;;15.00;99.90;;;;;;4979368;28;20038;-76
2022/10/24 02:43:48;;;;;;;11.68;3.20;;;14.90;99.90;;;;;;4984438;28;20034;-76
2022/10/24 02:46:15;;;;;;;9.30;3.17;;;14.90;99.90;;;;;;4963334;28;20089;-76
2022/10/24 02:48:46;;;;;;;10.20;3.20;;;14.90;99.90;;;;;;4978995;28;20497;-76
2022/10/24 02:51:13;;;;;;;8.27;3.15;;;14.90;99.90;;;;;;4989290;28;20050;-76
2022/10/24 02:53:39;;;;;;;10.40;3.10;;;14.90;99.90;;;;;;4979438;28;20053;-77
2022/10/24 02:56:05;;;;;;;9.80;3.35;;;14.80;99.90;;;;;;4954883;28;20474;-77
2022/10/24 02:58:31;;;;;;;10.98;3.30;;;14.80;99.90;;;;;;4967509;28;20050;-78
2022/10/24 03:00:57;;;;;;;8.45;3.40;;;14.70;99.90;;;;;;4987565;28;20050;-76
2022/10/24 03:03:22;;;;;;;7.65;3.05;;;14.70;99.90;;;;;;4962979;28;20058;-77
2022/10/24 03:05:48;;;;;;;8.27;3.30;;;14.60;99.90;;;;;;4944314;28;20042;-75
2022/10/24 03:08:14;;;;;;;12.35;3.40;;;14.70;99.90;;;;;;4989465;28;20118;-78
2022/10/24 03:10:40;;;;;;;9.57;3.10;;;14.60;99.90;;;;;;4970534;28;20487;-78
2022/10/24 03:13:06;;;;;;;9.75;3.20;;;14.60;99.90;;;;;;4977162;28;20052;-77
2022/10/24 03:15:32;;;;;;;8.60;2.90;;;14.60;99.90;;;;;;4954200;28;20050;-77
2022/10/24 03:17:58;;;;;;;9.48;3.38;;;14.60;99.90;;;;;;4983310;28;20104;-76
2022/10/24 03:20:24;;;;;;;12.77;3.13;;;14.60;99.90;;;;;;4946961;28;20046;-77
2022/10/24 03:22:50;;;;;;;9.68;3.30;;;14.50;99.90;;;;;;4983188;28;20082;-77
2022/10/24 03:25:16;;;;;;;9.02;2.90;;;14.60;99.90;;;;;;4979729;28;20046;-77
2022/10/24 03:27:42;;;;;;;9.82;2.95;;;14.60;99.90;;;;;;4975470;28;20417;-76
2022/10/24 03:30:08;;;;;;;9.20;3.00;;;14.70;99.90;;;;;;4980923;28;20359;-75
2022/10/24 03:32:34;;;;;;;10.02;3.17;;;14.70;99.90;;;;;;4970953;28;20042;-75
2022/10/24 03:35:01;;;;;;;10.73;3.20;;;14.70;99.90;;;;;;4975787;28;20046;-79
2022/10/24 03:37:27;;;;;;;9.98;3.00;;;14.70;99.90;;;;;;4978340;28;20493;-75
2022/10/24 03:39:53;;;;;;;11.00;3.03;;;14.70;99.90;;;;;;4986394;28;20252;-75
2022/10/24 03:42:19;;;;;;;10.85;2.97;;;14.80;99.90;;;;;;4978067;28;20043;-76
2022/10/24 03:44:44;;;;;;;8.77;2.78;;;14.80;99.90;;;;;;4962604;28;20054;-77
2022/10/24 03:47:11;;;;;;;8.93;2.72;;;14.90;99.90;;;;;;4981529;28;20052;-76
2022/10/24 03:49:36;;;;;;;8.43;2.58;;;15.00;99.90;;;;;;4987706;28;20077;-76
2022/10/24 03:52:02;;;;;;;9.43;2.90;;;15.00;99.90;;;;;;4980809;28;20085;-75
2022/10/24 03:54:28;;;;;;;8.93;2.97;;;15.00;99.90;;;;;;4981589;28;20386;-75
2022/10/24 03:56:53;;;;;;;8.55;2.50;;;15.10;99.90;;;;;;4958918;28;20042;-76
2022/10/24 03:59:19;;;;;;;6.30;2.50;;;15.10;99.90;;;;;;4983484;28;20053;-74
2022/10/24 04:01:45;;;;;;;9.00;2.67;;;15.10;99.90;;;;;;4973942;28;20488;-75
2022/10/24 04:04:10;;;;;;;9.23;2.63;;;15.10;99.90;;;;;;4977766;28;20049;-75
2022/10/24 04:06:36;;;;;;;10.80;2.75;;;15.20;99.90;;;;;;4993330;28;20095;-75
2022/10/24 04:09:02;;;;;;;11.27;2.70;;;15.20;99.90;;;;;;4962367;28;20042;-74
2022/10/24 04:11:28;;;;;;;7.13;2.40;;;15.20;99.90;;;;;;4985509;28;20046;-75
2022/10/24 04:13:54;;;;;;;8.68;2.40;;;15.20;99.90;;;;;;4977980;28;20065;-75
2022/10/24 04:16:19;;;;;;;9.82;2.60;;;15.20;99.90;;;;;;4978203;28;20182;-76
2022/10/24 04:18:45;;;;;;;8.38;2.40;;;15.20;99.90;;;;;;4961218;28;20047;-75
2022/10/24 04:21:11;;;;;;;7.75;2.40;;;15.20;99.90;;;;;;4995528;28;20042;-75
2022/10/24 04:23:39;;;;;;;8.88;2.55;;;15.20;99.90;;;;;;4977183;28;20042;-76
2022/10/24 04:26:11;;;;;;;8.68;2.10;;;15.20;99.90;;;;;;4972446;28;20046;-75
2022/10/24 04:28:36;;;;;;;7.32;2.30;;;15.20;99.90;;;;;;4981976;28;20042;-75
2022/10/24 04:31:03;;;;;;;8.20;2.03;;;15.20;99.90;;;;;;4989641;28;20180;-76
2022/10/24 04:33:29;;;;;;;8.98;2.38;;;15.10;99.90;;;;;;4954679;28;20041;-75
2022/10/24 04:35:54;;;;;;;7.60;2.20;;;15.00;99.90;;;;;;4968814;28;20048;-75
2022/10/24 04:38:20;;;;;;;8.32;2.28;;;15.00;99.90;;;;;;4950016;28;20034;-76
2022/10/24 04:40:52;;;;;;;6.78;2.22;;;14.90;99.90;;;;;;4977694;28;20038;-76
2022/10/24 04:43:18;;;;;;;9.35;2.42;;;14.90;99.90;;;;;;4965741;28;20050;-75
2022/10/24 04:45:44;;;;;;;7.28;1.98;;;15.00;99.90;;;;;;4964592;28;20126;-75
2022/10/24 04:48:10;;;;;;;7.63;2.10;;;14.90;99.90;;;;;;4975387;28;20394;-75
2022/10/24 04:50:38;;;;;;;8.00;2.10;;;14.80;99.90;;;;;;4971422;28;20046;-75
2022/10/24 04:53:03;;;;;;;8.40;2.00;;;14.80;99.90;;;;;;4955615;28;20057;-75
2022/10/24 04:55:29;;;;;;;8.82;2.45;;;14.80;99.90;;;;;;4958212;28;20046;-76
2022/10/24 04:57:55;;;;;;;7.82;2.28;;;14.80;99.90;;;;;;4971590;28;20068;-75
2022/10/24 05:00:21;;;;;;;7.70;2.25;;;14.80;99.90;;;;;;4977287;28;20109;-75
2022/10/24 05:02:46;;;;;;;8.52;2.17;;;14.80;99.90;;;;;;4976098;28;20053;-73
2022/10/24 05:05:12;;;;;;;6.47;2.10;;;14.80;99.90;;;;;;4976493;28;20424;-76
2022/10/24 05:07:38;;;;;;;7.38;2.00;;;14.80;99.90;;;;;;4937663;28;20133;-75
2022/10/24 05:10:05;;;;;;;7.95;2.00;;;14.80;99.90;;;;;;4977013;28;20379;-75
2022/10/24 05:12:30;;;;;;;9.05;2.20;;;14.70;99.90;;;;;;4975487;28;20082;-75
2022/10/24 05:14:56;;;;;;;12.60;2.00;;;14.70;99.90;;;;;;4968356;28;20108;-76
2022/10/24 05:17:22;;;;;;;8.38;2.05;;;14.80;99.90;;;;;;4950075;28;20088;-76
2022/10/24 05:19:48;;;;;;;7.80;1.80;;;14.80;99.90;;;;;;4957393;28;20483;-75
2022/10/24 05:22:14;;;;;;;11.10;2.15;;;14.80;99.90;;;;;;4958039;28;20047;-75
2022/10/24 05:24:40;;;;;;;6.90;2.00;;;14.70;99.90;;;;;;4957235;28;20054;-75
2022/10/24 05:27:05;;;;;;;9.90;2.10;;;14.70;99.90;;;;;;4955532;28;20046;-76
2022/10/24 05:29:31;;;;;;;8.25;2.03;;;14.60;99.90;;;;;;4967098;28;20053;-75
2022/10/24 05:31:57;;;;;;;7.50;2.05;;;14.50;99.90;;;;;;4959341;28;20047;-74
2022/10/24 05:34:22;;;;;;;7.82;2.00;;;14.50;99.90;;;;;;4976136;28;20038;-75
2022/10/24 05:36:49;;;;;;;7.68;2.00;;;14.50;99.90;;;;;;4965799;28;20058;-76
2022/10/24 05:39:14;;;;;;;7.43;2.00;;;14.50;99.90;;;;;;4972685;28;20077;-75
2022/10/24 05:41:40;;;;;;;8.20;1.92;;;14.40;99.90;;;;;;4948820;28;20076;-74
2022/10/24 05:44:06;;;;;;;7.03;2.00;;;14.40;99.90;;;;;;4965143;28;20046;-75
2022/10/24 05:46:31;;;;;;;7.53;1.70;;;14.40;99.90;;;;;;4951293;28;20104;-75
2022/10/24 05:48:57;;;;;;;7.80;1.95;;;14.40;99.90;;;;;;4975718;28;20133;-76
2022/10/24 05:51:23;;;;;;;9.82;2.22;;;14.40;99.90;;;;;;4956604;28;20049;-75
2022/10/24 05:53:48;;;;;;;8.50;1.90;;;14.40;99.90;;;;;;4971151;28;20042;-75
2022/10/24 05:56:14;;;;;;;7.75;1.80;;;14.40;99.90;;;;;;4973916;28;20062;-75
2022/10/24 05:58:40;;;;;;;9.32;2.15;;;14.40;99.90;;;;;;4982255;28;20055;-75
2022/10/24 06:01:05;;;;;;;7.63;1.98;;;14.30;99.90;;;;;;4962304;28;20101;-75
2022/10/24 06:03:31;;;;;;;9.85;2.17;;;14.30;99.90;;;;;;4984831;28;20073;-76
2022/10/24 06:05:57;;;;;;;7.18;1.80;;;14.30;99.90;;;;;;4957300;28;20467;-76
2022/10/24 06:08:22;;;;;;;7.85;2.03;;;14.30;99.90;;;;;;4976214;28;20042;-75
2022/10/24 06:10:50;;;;;;;6.82;2.08;;;14.30;99.90;;;;;;4944128;28;20046;-75
2022/10/24 06:13:16;;;;;;;8.27;1.90;;;14.30;99.90;;;;;;4975517;28;20390;-75
2022/10/24 06:15:43;;;;;;;8.35;2.05;;;14.40;99.90;;;;;;4975990;28;20081;-75
2022/10/24 06:18:08;;;;;;;7.45;2.00;;;14.40;99.90;;;;;;4979453;28;20065;-75
2022/10/24 06:20:35;;;;;;;8.20;2.00;;;14.50;99.90;;;;;;4956494;28;20379;-75
2022/10/24 06:23:01;;;;;;;8.55;2.17;;;14.50;99.90;;;;;;4972060;28;20054;-76
2022/10/24 06:25:26;;;;;;;8.18;2.00;;;14.50;99.90;;;;;;4959523;28;20043;-77
2022/10/24 06:27:52;;;;;;;9.10;2.05;;;14.50;99.90;;;;;;4966487;28;20166;-77
2022/10/24 06:30:18;;;;;;;8.63;1.70;;;14.60;99.90;;;;;;4982128;28;20046;-76
2022/10/24 06:32:44;;;;;;;8.43;1.92;;;14.60;99.90;;;;;;4966146;28;20375;-75
2022/10/24 06:35:12;;;;;;;10.70;2.17;;;14.60;99.90;;;;;;4963870;28;20445;-76
2022/10/24 06:37:38;;;;;;;7.20;1.92;;;14.70;99.90;;;;;;4981439;28;20049;-76
2022/10/24 06:40:04;;;;;;;7.38;1.90;;;14.70;99.90;;;;;;4935332;28;20094;-76
2022/10/24 06:42:30;;;;;;;9.02;1.92;;;14.70;99.90;;;;;;4962441;28;20038;-77
2022/10/24 06:44:56;;;;;;;8.50;2.10;;;14.80;99.90;;;;;;4964936;28;20378;-75
2022/10/24 06:47:21;;;;;;;9.07;1.92;;;14.80;99.90;;;;;;4949414;28;20050;-75
2022/10/24 06:49:47;;;;;;;8.00;2.05;;;14.80;99.90;;;;;;4967023;28;20043;-76
2022/10/24 06:52:13;;;;;;;7.70;1.90;;;14.80;99.90;;;;;;4965437;28;20047;-75
2022/10/24 06:54:39;;;;;;;6.93;2.00;;;14.80;99.90;;;;;;4954334;28;20046;-73
2022/10/24 06:57:06;;;;;;;8.45;1.67;;;14.80;99.90;;;;;;4973734;28;20474;-74
2022/10/24 06:59:31;;;;;;;6.82;1.80;;;14.80;99.90;;;;;;4953814;28;20109;-74
2022/10/24 07:01:57;;;;;;;8.65;2.08;;;14.90;99.90;;;;;;4967635;28;20423;-75
2022/10/24 07:04:24;;;;;;;9.68;1.98;;;14.90;99.90;;;;;;4970019;28;20070;-76
2022/10/24 07:06:50;;;;;;;8.27;1.90;;;14.90;99.90;;;;;;4971507;28;20031;-75
2022/10/24 07:09:16;;;;;;;8.35;1.73;;;14.90;99.90;;;;;;4970150;28;20038;-74
2022/10/24 07:11:42;;;;;;;7.13;1.90;;;15.00;99.90;;;;;;4972963;28;20054;-74
2022/10/24 07:14:08;;;;;;;8.95;1.90;;;15.00;99.90;;;;;;4972098;28;20046;-75
2022/10/24 07:16:35;;;;;;;8.88;1.85;;;15.00;99.90;;;;;;4969671;28;20033;-76
2022/10/24 07:19:00;;;;;;;7.43;1.80;;;15.00;99.90;;;;;;4957410;28;20042;-74
2022/10/24 07:21:29;;;;;;;6.35;1.70;;;15.00;99.90;;;;;;4974428;28;20541;-75
2022/10/24 07:23:55;;;;;;;9.98;1.90;;;15.10;99.90;;;;;;4977145;28;20044;-76
2022/10/24 07:26:23;;;;;;;8.43;1.63;;;15.10;99.90;;;;;;4973463;28;20064;-77
2022/10/24 07:28:53;;;;;;;7.93;1.60;;;15.10;99.90;;;;;;4974288;28;20382;-74
2022/10/24 07:31:24;;;;;;;9.38;1.88;;;15.10;99.90;;;;;;4963134;28;20049;-77
2022/10/24 07:33:51;;;;;;;7.45;1.67;;;15.20;99.90;;;;;;4976148;28;20123;-75
2022/10/24 07:36:23;;;;;;;8.32;1.90;;;15.10;99.90;;;;;;4960991;28;20046;-76
2022/10/24 07:38:50;;;;;;;9.20;1.90;;;15.20;99.90;;;;;;4976469;28;20038;-76
2022/10/24 07:41:16;;;;;;;7.28;1.80;;;15.20;99.90;;;;;;4976685;28;20034;-74
2022/10/24 07:43:42;;;;;;;7.38;1.88;;;15.20;99.90;;;;;;4975295;28;20046;-76
2022/10/24 07:46:10;;;;;;;7.78;1.83;;;15.30;99.90;;;;;;4975917;28;20491;-75
2022/10/24 07:48:37;;;;;;;8.23;1.80;;;15.40;99.90;;;;;;4976941;28;20049;-75
2022/10/24 07:51:08;;;;;;;8.63;1.90;;;15.50;99.90;;;;;;4974040;28;20138;-76
2022/10/24 07:53:33;;;;;;;9.30;1.75;;;15.50;99.90;;;;;;4978092;28;20057;-75
2022/10/24 07:56:00;;;;;;;8.32;2.00;;;15.50;99.90;;;;;;4974336;28;20058;-75
2022/10/24 07:58:26;;;;;;;9.20;1.90;;;15.60;99.90;;;;;;4976117;28;20077;-75
2022/10/24 08:00:52;;;;;;;7.95;1.80;;;15.70;99.90;;;;;;4965038;28;20042;-76
2022/10/24 08:03:18;;;;;;;8.15;1.75;;;15.70;99.90;;;;;;4966178;28;20046;-75
2022/10/24 08:05:44;;;;;;;8.25;1.80;;;15.70;99.90;;;;;;4950283;28;20084;-75
2022/10/24 08:08:09;;;;;;;8.45;1.98;;;15.70;99.90;;;;;;4961433;28;20112;-77
2022/10/24 08:10:35;;;;;;;9.15;2.10;;;15.80;99.90;;;;;;4962022;28;20053;-76
2022/10/24 08:13:01;;;;;;;9.90;1.90;;;15.90;99.90;;;;;;4960789;28;20046;-75
2022/10/24 08:15:27;;;;;;;8.50;2.00;;;15.90;99.90;;;;;;4978310;28;20050;-75
2022/10/24 08:17:53;;;;;;;10.00;1.90;;;15.90;99.90;;;;;;4947693;28;20050;-76
2022/10/24 08:20:20;;;;;;;8.52;1.83;;;15.90;99.90;;;;;;4977974;28;20097;-74
2022/10/24 08:22:46;;;;;;;10.82;2.20;;;15.90;99.90;;;;;;4965986;28;20046;-76
2022/10/24 08:25:13;;;;;;;7.78;1.80;;;15.90;99.90;;;;;;4994677;28;20503;-77
2022/10/24 08:27:40;;;;;;;10.10;1.80;;;16.00;99.90;;;;;;4976027;28;20050;-76
2022/10/24 08:30:06;;;;;;;10.25;2.10;;;16.10;99.90;;;;;;4975995;28;20042;-77
2022/10/24 08:32:33;;;;;;;10.05;1.85;;;16.20;99.90;;;;;;4965766;28;20046;-76
2022/10/24 08:34:59;;;;;;;9.27;1.90;;;16.30;99.90;;;;;;4957894;28;20234;-76
2022/10/24 08:37:24;;;;;;;11.23;1.80;;;16.40;99.90;;;;;;4977487;28;20161;-74
2022/10/24 08:39:54;;;;;;;12.23;1.90;;;16.40;99.90;;;;;;4976986;28;20415;-75
2022/10/24 08:42:23;;;;;;;9.77;2.10;;;16.60;99.90;;;;;;4977336;28;20042;-75
2022/10/24 08:44:49;;;;;;;10.43;1.90;;;16.70;99.90;;;;;;4977306;28;20077;-76
2022/10/24 08:47:30;;;;;;;9.50;2.13;;;16.90;99.90;;;;;;4960698;28;20104;-75
2022/10/24 08:50:00;;;;;;;11.32;1.90;;;16.80;99.90;;;;;;4976376;28;20061;-74
2022/10/24 08:52:56;;;;;;;9.80;2.08;;;16.80;99.90;;;;;;4977016;28;20132;-75
2022/10/24 08:55:26;;;;;;;9.50;1.90;;;16.80;99.90;;;;;;4977474;28;20042;-74
2022/10/24 08:57:56;;;;;;;9.55;1.92;;;16.80;99.90;;;;;;4976920;28;20038;-77
2022/10/24 09:00:25;;;;;;;10.07;2.10;;;17.00;99.90;;;;;;4960772;28;20042;-74
2022/10/24 09:03:03;;;;;;;10.88;2.03;;;17.10;99.90;;;;;;4973773;28;20051;-76
2022/10/24 09:05:39;;;;;;;8.45;2.05;;;17.10;99.90;;;;;;4968031;28;20498;-76
2022/10/24 09:08:30;;;;;;;9.65;1.90;;;17.00;99.90;;;;;;4975057;28;20181;-75
2022/10/24 09:10:59;;;;;;;8.35;2.05;;;16.90;99.90;;;;;;4977104;28;20042;-74
2022/10/24 09:13:27;;;;;;;10.05;2.00;;;16.90;99.90;;;;;;4960276;28;20493;-75
2022/10/24 09:15:53;;;;;;;9.40;1.92;;;16.80;99.90;;;;;;4977037;28;20474;-74
2022/10/24 09:18:27;;;;;;;10.48;2.08;;;16.80;99.90;;;;;;4975791;28;20382;-76
2022/10/24 09:20:54;;;;;;;10.05;2.00;;;16.70;99.90;;;;;;4973344;28;20053;-75
2022/10/24 09:23:22;;;;;;;10.27;2.00;;;16.70;99.90;;;;;;4973169;28;20050;-75
2022/10/24 09:25:51;;;;;;;10.45;2.05;;;16.70;99.90;;;;;;4989625;28;20042;-75
2022/10/24 09:28:18;;;;;;;8.38;1.90;;;16.70;99.90;;;;;;4972585;28;20502;-75
2022/10/24 09:30:44;;;;;;;9.77;2.00;;;16.80;99.90;;;;;;4973784;28;20121;-74
2022/10/24 09:33:29;;;;;;;9.60;2.03;;;16.80;99.90;;;;;;4964590;28;20051;-75
2022/10/24 09:36:02;;;;;;;7.15;1.75;;;16.90;99.90;;;;;;4965959;28;20046;-75
2022/10/24 09:38:35;;;;;;;7.60;1.85;;;17.00;99.90;;;;;;4951885;28;20114;-75
2022/10/24 09:41:14;;;;;;;10.07;2.22;;;17.20;99.90;;;;;;4968899;28;20042;-78
2022/10/24 09:43:42;;;;;;;9.57;1.85;;;17.20;99.90;;;;;;4969403;28;20043;-76
2022/10/24 09:46:20;;;;;;;9.77;1.90;;;17.20;99.90;;;;;;4969496;28;20058;-76
2022/10/24 09:49:13;;;;;;;9.98;1.92;;;17.20;99.90;;;;;;4970439;28;20094;-78
2022/10/24 09:51:45;;;;;;;9.38;2.10;;;17.10;99.90;;;;;;4969687;28;20094;-76
2022/10/24 09:54:17;;;;;;;;;;;17.10;99.90;;;;;;4970304;28;20486;-77
2022/10/24 09:56:45;;;;;;;7.32;1.52;;;17.00;99.90;;;;;;4955112;28;19917;-76
2022/10/24 09:59:37;;;;;;;7.97;1.70;;;16.90;99.90;;;;;;4969525;28;20043;-77
2022/10/24 10:02:09;;;;;;;8.82;1.85;;;16.80;99.90;;;;;;4968564;28;20049;-75
2022/10/24 10:04:36;;;;;;;9.20;1.90;;;16.90;99.90;;;;;;4969850;28;20053;-74
2022/10/24 10:07:09;;;;;;;9.52;1.60;;;16.90;99.90;;;;;;4970356;28;20505;-76
2022/10/24 10:09:40;;;;;;;9.32;1.88;;;17.10;99.90;;;;;;4955014;28;20074;-78
2022/10/24 10:12:24;;;;;;;8.88;1.70;;;17.40;99.90;;;;;;4971341;28;20049;-77
2022/10/24 10:14:51;;;;;;;8.93;1.75;;;17.60;99.90;;;;;;4970011;28;20483;-76
2022/10/24 10:17:24;;;;;;;7.95;1.85;;;17.60;99.90;;;;;;4971378;28;20494;-75
2022/10/24 10:19:51;;;;;;;10.52;2.10;;;17.50;99.90;;;;;;4969485;28;20039;-78
2022/10/24 10:22:23;;;;;;;7.45;1.80;;;17.40;99.90;;;;;;4968172;28;20053;-77
2022/10/24 10:24:49;;;;;;;11.30;1.83;;;17.40;99.90;;;;;;4968103;28;20074;-75
2022/10/24 10:27:37;;;;;;;6.75;1.75;;;17.30;99.90;;;;;;4970613;28;20070;-78
2022/10/24 10:30:14;;;;;;;8.85;1.60;;;17.30;99.90;;;;;;4967437;28;20089;-79
2022/10/24 10:33:07;;;;;;;9.48;1.80;;;17.20;99.90;;;;;;4967891;28;20352;-76
2022/10/24 10:35:50;;;;;;;7.47;1.67;;;17.10;99.90;;;;;;4966690;28;20042;-75
2022/10/24 10:38:50;;;;;;;7.32;1.52;;;16.80;99.90;;;;;;4953334;28;20054;-76
2022/10/24 10:41:27;;;;;;;7.10;1.60;;;16.70;99.90;;;;;;4968925;28;20138;-76
2022/10/24 10:44:24;;;;;;;6.70;1.60;;;16.50;99.90;;;;;;4968626;28;21174;-76
2022/10/24 10:47:39;;;;;;;6.60;1.50;;;16.40;99.90;;;;;;4969550;28;20055;-77
2022/10/24 10:50:17;;;;;;;7.30;1.58;;;16.30;99.90;;;;;;4970705;28;20487;-76
2022/10/24 10:53:01;;;;;;;7.35;1.60;;;16.30;99.90;;;;;;4973647;28;20124;-77
2022/10/24 10:55:38;;;;;;;8.82;1.75;;;16.50;99.90;;;;;;4974861;28;20089;-75
2022/10/24 10:58:38;;;;;;;6.53;1.55;;;16.70;99.90;;;;;;4972139;28;20108;-77
2022/10/24 11:01:39;;;;;;;6.35;1.50;;;16.90;99.90;;;;;;4956638;28;20109;-77
2022/10/24 11:04:23;;;;;;;7.97;1.65;;;17.10;99.90;;;;;;4968816;28;20054;-77
2022/10/24 11:07:13;;;;;;;9.65;1.63;;;17.20;99.90;;;;;;4968133;28;20039;-78
2022/10/24 11:09:47;;;;;;;8.65;1.80;;;17.40;99.90;;;;;;4968003;28;20051;-78
2022/10/24 11:12:45;;;;;;;7.78;1.60;;;17.60;99.90;;;;;;4965686;28;20527;-77
2022/10/24 11:15:20;;;;;;;10.13;1.73;;;17.70;99.90;;;;;;4938405;28;20043;-78
2022/10/24 11:17:57;;;;;;;8.70;1.70;;;17.70;99.90;;;;;;4968551;28;20043;-77
2022/10/24 11:20:33;;;;;;;9.77;1.60;;;17.60;99.90;;;;;;4965184;28;20038;-79
2022/10/24 11:23:23;;;;;;;7.78;1.67;;;17.60;99.90;;;;;;4964114;28;20727;-79
2022/10/24 11:26:16;;;;;;;9.18;1.70;;;17.50;99.90;;;;;;4967882;28;20047;-77
2022/10/24 11:28:56;;;;;;;6.53;1.50;;;17.60;99.90;;;;;;4965488;28;20565;-77
2022/10/24 11:31:32;;;;;;;5.80;1.50;;;17.60;99.90;;;;;;4968011;28;20049;-76
2022/10/24 11:34:10;;;;;;;7.10;1.30;;;17.60;99.90;;;;;;4965527;28;20066;-76
2022/10/24 11:36:44;;;;;;;6.63;1.58;;;17.70;99.90;;;;;;4970237;28;20134;-75
2022/10/24 11:39:14;;;;;;;6.65;1.70;;;17.70;99.90;;;;;;4950467;28;20062;-77
2022/10/24 11:41:46;;;;;;;6.93;1.70;;;17.70;99.90;;;;;;4964123;28;20043;-78
2022/10/24 11:44:49;;;;;;;6.20;1.30;;;17.70;99.90;;;;;;4971649;28;20071;-76
2022/10/24 11:47:18;;;;;;;6.30;1.33;;;17.70;99.90;;;;;;4966298;28;20047;-75
2022/10/24 11:49:49;;;;;;;8.82;1.67;;;17.60;99.90;;;;;;4972255;28;20051;-76
2022/10/24 11:52:23;;;;;;;6.82;1.20;;;17.50;99.90;;;;;;4950688;28;20045;-77
2022/10/24 11:54:58;;;;;;;7.75;1.35;;;17.40;99.90;;;;;;4972439;28;20070;-77
2022/10/24 11:57:29;;;;;;;7.35;1.42;;;17.30;99.90;;;;;;4965675;28;20043;-76
2022/10/24 11:59:57;;;;;;;7.53;1.40;;;17.20;99.90;;;;;;4972053;28;20038;-79
2022/10/24 12:02:26;;;;;;;7.55;1.50;;;17.10;99.90;;;;;;4973163;28;20046;-78
2022/10/24 12:05:10;;;;;;;7.82;1.70;;;17.10;99.90;;;;;;4968042;28;20043;-78
2022/10/24 12:08:20;;;;;;;7.30;1.42;;;17.00;99.90;;;;;;4972878;28;20554;-75
2022/10/24 12:11:09;;;;;;;7.32;1.50;;;17.10;99.90;;;;;;4970733;28;20390;-75
2022/10/24 12:13:58;;;;;;;7.35;1.52;;;17.10;99.90;;;;;;4955786;28;20038;-76
2022/10/24 12:16:55;;;;;;;7.63;1.50;;;17.10;99.90;;;;;;4971596;28;20055;-76
2022/10/24 12:19:21;;;;;;;6.55;1.40;;;17.20;99.90;;;;;;4986575;28;20489;-76
2022/10/24 12:21:54;;;;;;;6.72;1.42;;;17.10;99.90;;;;;;4971837;28;20475;-76
2022/10/24 12:24:29;;;;;;;8.73;1.50;;;17.10;99.90;;;;;;4971314;28;20104;-76
2022/10/24 12:27:03;;;;;;;7.65;1.65;;;17.00;99.90;;;;;;4971433;28;20047;-77
2022/10/24 12:29:34;;;;;;;7.03;1.40;;;17.00;99.90;;;;;;4970192;28;20058;-75
2022/10/24 12:32:34;;;;;;;6.78;1.73;;;16.90;99.90;;;;;;4972687;28;20375;-76
2022/10/24 12:35:01;;;;;;;7.45;1.45;;;16.80;99.90;;;;;;4961387;28;20569;-75
2022/10/24 12:37:34;;;;;;;7.45;1.60;;;16.80;99.90;;;;;;4972356;28;20121;-78
2022/10/24 12:40:38;;;;;;;6.75;1.50;;;16.80;99.90;;;;;;4972314;28;20157;-78
2022/10/24 12:43:12;;;;;;;5.85;1.42;;;16.80;99.90;;;;;;4972175;28;20047;-76
2022/10/24 12:45:38;;;;;;;6.82;1.45;;;16.90;99.90;;;;;;4972271;28;20046;-75
2022/10/24 12:48:32;;;;;;;8.05;1.60;;;16.90;99.90;;;;;;4970656;28;20055;-76
2022/10/24 12:51:31;;;;;;;6.88;1.48;;;16.90;99.90;;;;;;4955232;28;20545;-78
2022/10/24 12:54:39;;;;;;;6.68;1.50;;;17.00;99.90;;;;;;4969923;28;20101;-76
2022/10/24 12:57:05;;;;;;;8.30;1.58;;;17.20;99.90;;;;;;4969776;28;20523;-75
2022/10/24 12:59:45;;;;;;;7.90;1.50;;;17.20;99.90;;;;;;4927198;28;20051;-77
2022/10/24 13:02:16;;;;;;;6.18;1.20;;;17.20;99.90;;;;;;4972026;28;20092;-76
2022/10/24 13:05:01;;;;;;;6.22;1.30;;;17.20;99.90;;;;;;4965337;28;20039;-77
2022/10/24 13:07:38;;;;;;;5.95;1.30;;;17.20;99.90;;;;;;4972408;28;20050;-76
2022/10/24 13:10:28;;;;;;;7.18;1.20;;;17.30;99.90;;;;;;4970337;28;20042;-77